sensor_id;sensor_type;location;lat;lon;timestamp;temperature;humidity
32217;DHT22;67098;51.140;4.088;2023-08-30T00:00:19;17.10;83.60
32217;DHT22;67098;51.140;4.088;2023-08-30T00:02:48;17.10;83.60
32217;DHT22;67098;51.140;4.088;2023-08-30T00:05:14;17.10;83.60
32217;DHT22;67098;51.140;4.088;2023-08-30T00:07:40;17.20;83.60
32217;DHT22;67098;51.140;4.088;2023-08-30T00:10:07;17.20;83.60
32217;DHT22;67098;51.140;4.088;2023-08-30T00:12:34;17.20;83.70
32217;DHT22;67098;51.140;4.088;2023-08-30T00:14:59;17.20;83.70
32217;DHT22;67098;51.140;4.088;2023-08-30T00:17:25;17.20;83.70
32217;DHT22;67098;51.140;4.088;2023-08-30T00:19:51;17.20;83.70
32217;DHT22;67098;51.140;4.088;2023-08-30T00:22:18;17.30;83.90
32217;DHT22;67098;51.140;4.088;2023-08-30T00:24:44;17.20;83.90
32217;DHT22;67098;51.140;4.088;2023-08-30T00:27:13;17.20;83.80
32217;DHT22;67098;51.140;4.088;2023-08-30T00:29:39;17.20;83.90
32217;DHT22;67098;51.140;4.088;2023-08-30T00:32:05;17.30;84.00
32217;DHT22;67098;51.140;4.088;2023-08-30T00:34:31;17.30;84.00
32217;DHT22;67098;51.140;4.088;2023-08-30T00:36:56;17.30;84.00
32217;DHT22;67098;51.140;4.088;2023-08-30T00:39:22;17.30;84.00
32217;DHT22;67098;51.140;4.088;2023-08-30T00:41:48;17.30;84.00
32217;DHT22;67098;51.140;4.088;2023-08-30T00:44:14;17.30;84.00
32217;DHT22;67098;51.140;4.088;2023-08-30T00:46:40;17.30;83.80
32217;DHT22;67098;51.140;4.088;2023-08-30T00:49:05;17.20;84.10
32217;DHT22;67098;51.140;4.088;2023-08-30T00:51:32;17.20;84.10
32217;DHT22;67098;51.140;4.088;2023-08-30T00:53:59;17.20;84.10
32217;DHT22;67098;51.140;4.088;2023-08-30T00:56:27;17.20;84.10
32217;DHT22;67098;51.140;4.088;2023-08-30T00:58:53;17.20;84.30
32217;DHT22;67098;51.140;4.088;2023-08-30T01:01:20;17.20;84.30
32217;DHT22;67098;51.140;4.088;2023-08-30T01:03:46;17.20;84.40
32217;DHT22;67098;51.140;4.088;2023-08-30T01:06:12;17.20;85.00
32217;DHT22;67098;51.140;4.088;2023-08-30T01:08:40;17.20;84.60
32217;DHT22;67098;51.140;4.088;2023-08-30T01:14:03;17.20;84.80
32217;DHT22;67098;51.140;4.088;2023-08-30T01:16:30;17.20;84.60
32217;DHT22;67098;51.140;4.088;2023-08-30T01:18:58;17.10;84.70
32217;DHT22;67098;51.140;4.088;2023-08-30T01:21:50;17.10;84.50
32217;DHT22;67098;51.140;4.088;2023-08-30T01:27:15;17.10;84.30
32217;DHT22;67098;51.140;4.088;2023-08-30T01:29:44;17.10;84.60
32217;DHT22;67098;51.140;4.088;2023-08-30T01:32:11;17.00;84.60
32217;DHT22;67098;51.140;4.088;2023-08-30T01:34:39;17.00;84.70
32217;DHT22;67098;51.140;4.088;2023-08-30T01:37:06;17.00;84.70
32217;DHT22;67098;51.140;4.088;2023-08-30T01:39:36;17.00;84.60
32217;DHT22;67098;51.140;4.088;2023-08-30T01:42:03;16.90;84.60
32217;DHT22;67098;51.140;4.088;2023-08-30T01:44:30;16.90;84.90
32217;DHT22;67098;51.140;4.088;2023-08-30T01:46:57;16.80;84.90
32217;DHT22;67098;51.140;4.088;2023-08-30T01:49:24;16.80;84.90
32217;DHT22;67098;51.140;4.088;2023-08-30T01:51:51;16.80;85.20
32217;DHT22;67098;51.140;4.088;2023-08-30T01:54:18;16.80;85.30
32217;DHT22;67098;51.140;4.088;2023-08-30T01:56:46;16.70;85.20
32217;DHT22;67098;51.140;4.088;2023-08-30T01:59:12;16.70;85.40
32217;DHT22;67098;51.140;4.088;2023-08-30T02:01:38;16.60;85.40
32217;DHT22;67098;51.140;4.088;2023-08-30T02:04:04;16.60;85.60
32217;DHT22;67098;51.140;4.088;2023-08-30T02:06:45;16.60;85.70
32217;DHT22;67098;51.140;4.088;2023-08-30T02:09:25;16.60;85.70
32217;DHT22;67098;51.140;4.088;2023-08-30T02:11:53;16.60;85.80
32217;DHT22;67098;51.140;4.088;2023-08-30T02:14:21;16.50;86.00
32217;DHT22;67098;51.140;4.088;2023-08-30T02:16:48;16.50;86.40
32217;DHT22;67098;51.140;4.088;2023-08-30T02:19:14;16.50;86.50
32217;DHT22;67098;51.140;4.088;2023-08-30T02:21:46;16.60;86.70
32217;DHT22;67098;51.140;4.088;2023-08-30T02:24:13;16.60;86.90
32217;DHT22;67098;51.140;4.088;2023-08-30T02:26:38;16.60;86.90
32217;DHT22;67098;51.140;4.088;2023-08-30T02:29:04;16.70;87.10
32217;DHT22;67098;51.140;4.088;2023-08-30T02:31:30;16.80;87.10
32217;DHT22;67098;51.140;4.088;2023-08-30T02:33:56;16.80;87.00
32217;DHT22;67098;51.140;4.088;2023-08-30T02:36:21;16.80;87.00
32217;DHT22;67098;51.140;4.088;2023-08-30T02:38:47;16.90;87.10
32217;DHT22;67098;51.140;4.088;2023-08-30T02:41:13;16.90;87.10
32217;DHT22;67098;51.140;4.088;2023-08-30T02:43:39;17.00;86.90
32217;DHT22;67098;51.140;4.088;2023-08-30T02:46:04;17.00;86.90
32217;DHT22;67098;51.140;4.088;2023-08-30T02:48:32;17.10;86.90
32217;DHT22;67098;51.140;4.088;2023-08-30T02:50:59;17.10;86.90
32217;DHT22;67098;51.140;4.088;2023-08-30T02:53:25;17.10;87.00
32217;DHT22;67098;51.140;4.088;2023-08-30T02:55:50;17.10;87.20
32217;DHT22;67098;51.140;4.088;2023-08-30T02:58:16;17.10;86.70
32217;DHT22;67098;51.140;4.088;2023-08-30T03:00:42;17.20;86.90
32217;DHT22;67098;51.140;4.088;2023-08-30T03:03:08;17.20;86.80
32217;DHT22;67098;51.140;4.088;2023-08-30T03:05:34;17.20;86.90
32217;DHT22;67098;51.140;4.088;2023-08-30T03:07:59;17.20;87.10
32217;DHT22;67098;51.140;4.088;2023-08-30T03:10:25;17.20;87.10
32217;DHT22;67098;51.140;4.088;2023-08-30T03:12:51;17.20;87.20
32217;DHT22;67098;51.140;4.088;2023-08-30T03:15:17;17.20;87.20
32217;DHT22;67098;51.140;4.088;2023-08-30T03:17:43;17.30;87.30
32217;DHT22;67098;51.140;4.088;2023-08-30T03:20:09;17.30;87.20
32217;DHT22;67098;51.140;4.088;2023-08-30T03:22:35;17.30;86.90
32217;DHT22;67098;51.140;4.088;2023-08-30T03:25:01;17.30;86.90
32217;DHT22;67098;51.140;4.088;2023-08-30T03:27:29;17.30;87.20
32217;DHT22;67098;51.140;4.088;2023-08-30T03:29:56;17.30;87.50
32217;DHT22;67098;51.140;4.088;2023-08-30T03:32:22;17.30;87.70
32217;DHT22;67098;51.140;4.088;2023-08-30T03:34:49;17.30;87.60
32217;DHT22;67098;51.140;4.088;2023-08-30T03:37:15;17.30;87.70
32217;DHT22;67098;51.140;4.088;2023-08-30T03:39:41;17.30;88.00
32217;DHT22;67098;51.140;4.088;2023-08-30T03:42:07;17.30;88.00
32217;DHT22;67098;51.140;4.088;2023-08-30T03:44:33;17.30;88.10
32217;DHT22;67098;51.140;4.088;2023-08-30T03:46:58;17.40;88.00
32217;DHT22;67098;51.140;4.088;2023-08-30T03:49:24;17.40;88.10
32217;DHT22;67098;51.140;4.088;2023-08-30T03:51:50;17.40;88.10
32217;DHT22;67098;51.140;4.088;2023-08-30T03:54:16;17.40;88.20
32217;DHT22;67098;51.140;4.088;2023-08-30T03:56:45;17.50;88.30
32217;DHT22;67098;51.140;4.088;2023-08-30T03:59:11;17.50;88.40
32217;DHT22;67098;51.140;4.088;2023-08-30T04:01:37;17.50;88.70
32217;DHT22;67098;51.140;4.088;2023-08-30T04:04:03;17.50;88.90
32217;DHT22;67098;51.140;4.088;2023-08-30T04:06:30;17.50;89.10
32217;DHT22;67098;51.140;4.088;2023-08-30T04:08:56;17.50;89.20
32217;DHT22;67098;51.140;4.088;2023-08-30T04:11:22;17.50;89.50
32217;DHT22;67098;51.140;4.088;2023-08-30T04:13:48;17.50;89.90
32217;DHT22;67098;51.140;4.088;2023-08-30T04:16:13;17.50;90.00
32217;DHT22;67098;51.140;4.088;2023-08-30T04:18:39;17.50;90.20
32217;DHT22;67098;51.140;4.088;2023-08-30T04:21:05;17.50;90.30
32217;DHT22;67098;51.140;4.088;2023-08-30T04:23:33;17.40;90.60
32217;DHT22;67098;51.140;4.088;2023-08-30T04:25:59;17.50;90.80
32217;DHT22;67098;51.140;4.088;2023-08-30T04:28:24;17.40;91.00
32217;DHT22;67098;51.140;4.088;2023-08-30T04:30:54;17.50;91.40
32217;DHT22;67098;51.140;4.088;2023-08-30T04:33:20;17.50;91.60
32217;DHT22;67098;51.140;4.088;2023-08-30T04:35:50;17.40;91.80
32217;DHT22;67098;51.140;4.088;2023-08-30T04:38:16;17.30;92.10
32217;DHT22;67098;51.140;4.088;2023-08-30T04:40:42;17.30;92.30
32217;DHT22;67098;51.140;4.088;2023-08-30T04:43:08;17.20;92.40
32217;DHT22;67098;51.140;4.088;2023-08-30T04:45:36;17.20;92.60
32217;DHT22;67098;51.140;4.088;2023-08-30T04:48:02;17.20;92.70
32217;DHT22;67098;51.140;4.088;2023-08-30T04:50:28;17.20;92.70
32217;DHT22;67098;51.140;4.088;2023-08-30T04:52:54;17.20;92.90
32217;DHT22;67098;51.140;4.088;2023-08-30T04:55:20;17.20;93.10
32217;DHT22;67098;51.140;4.088;2023-08-30T04:57:45;17.20;93.10
32217;DHT22;67098;51.140;4.088;2023-08-30T05:00:13;17.20;93.20
32217;DHT22;67098;51.140;4.088;2023-08-30T05:02:39;17.10;93.40
32217;DHT22;67098;51.140;4.088;2023-08-30T05:05:07;17.10;93.40
32217;DHT22;67098;51.140;4.088;2023-08-30T05:07:33;17.20;93.50
32217;DHT22;67098;51.140;4.088;2023-08-30T05:09:59;17.20;93.50
32217;DHT22;67098;51.140;4.088;2023-08-30T05:12:25;17.20;93.50
32217;DHT22;67098;51.140;4.088;2023-08-30T05:14:50;17.20;93.60
32217;DHT22;67098;51.140;4.088;2023-08-30T05:17:17;17.10;93.80
32217;DHT22;67098;51.140;4.088;2023-08-30T05:19:43;17.20;93.70
32217;DHT22;67098;51.140;4.088;2023-08-30T05:22:09;17.20;93.70
32217;DHT22;67098;51.140;4.088;2023-08-30T05:24:35;17.20;93.90
32217;DHT22;67098;51.140;4.088;2023-08-30T05:27:01;17.20;94.10
32217;DHT22;67098;51.140;4.088;2023-08-30T05:29:27;17.20;94.10
32217;DHT22;67098;51.140;4.088;2023-08-30T05:31:53;17.20;94.30
32217;DHT22;67098;51.140;4.088;2023-08-30T05:34:18;17.10;94.30
32217;DHT22;67098;51.140;4.088;2023-08-30T05:36:44;17.20;94.10
32217;DHT22;67098;51.140;4.088;2023-08-30T05:39:10;17.20;94.30
32217;DHT22;67098;51.140;4.088;2023-08-30T05:41:35;17.20;94.60
32217;DHT22;67098;51.140;4.088;2023-08-30T05:44:02;17.20;94.60
32217;DHT22;67098;51.140;4.088;2023-08-30T05:46:28;17.20;94.70
32217;DHT22;67098;51.140;4.088;2023-08-30T05:48:54;17.20;95.00
32217;DHT22;67098;51.140;4.088;2023-08-30T05:51:20;17.20;95.00
32217;DHT22;67098;51.140;4.088;2023-08-30T05:53:46;17.20;95.20
32217;DHT22;67098;51.140;4.088;2023-08-30T05:56:11;17.00;95.20
32217;DHT22;67098;51.140;4.088;2023-08-30T05:58:37;17.00;95.30
32217;DHT22;67098;51.140;4.088;2023-08-30T06:01:04;17.00;95.60
32217;DHT22;67098;51.140;4.088;2023-08-30T06:03:32;17.00;95.70
32217;DHT22;67098;51.140;4.088;2023-08-30T06:05:57;17.00;95.70
32217;DHT22;67098;51.140;4.088;2023-08-30T06:08:23;17.10;95.60
32217;DHT22;67098;51.140;4.088;2023-08-30T06:10:49;17.00;95.60
32217;DHT22;67098;51.140;4.088;2023-08-30T06:13:15;17.00;95.70
32217;DHT22;67098;51.140;4.088;2023-08-30T06:15:41;17.20;95.70
32217;DHT22;67098;51.140;4.088;2023-08-30T06:18:07;17.20;95.60
32217;DHT22;67098;51.140;4.088;2023-08-30T06:20:33;17.20;95.80
32217;DHT22;67098;51.140;4.088;2023-08-30T06:23:02;17.10;95.80
32217;DHT22;67098;51.140;4.088;2023-08-30T06:25:28;17.20;95.80
32217;DHT22;67098;51.140;4.088;2023-08-30T06:27:58;17.10;95.90
32217;DHT22;67098;51.140;4.088;2023-08-30T06:30:25;17.10;95.90
32217;DHT22;67098;51.140;4.088;2023-08-30T06:32:51;17.20;95.90
32217;DHT22;67098;51.140;4.088;2023-08-30T06:35:20;17.20;96.00
32217;DHT22;67098;51.140;4.088;2023-08-30T06:37:46;17.20;96.00
32217;DHT22;67098;51.140;4.088;2023-08-30T06:40:11;17.30;96.00
32217;DHT22;67098;51.140;4.088;2023-08-30T06:42:37;17.20;95.90
32217;DHT22;67098;51.140;4.088;2023-08-30T06:45:04;17.40;95.90
32217;DHT22;67098;51.140;4.088;2023-08-30T06:47:30;17.30;96.00
32217;DHT22;67098;51.140;4.088;2023-08-30T06:49:56;17.40;96.00
32217;DHT22;67098;51.140;4.088;2023-08-30T06:52:22;17.40;96.10
32217;DHT22;67098;51.140;4.088;2023-08-30T06:54:48;17.40;96.10
32217;DHT22;67098;51.140;4.088;2023-08-30T06:57:13;17.40;96.10
32217;DHT22;67098;51.140;4.088;2023-08-30T06:59:39;17.40;96.10
32217;DHT22;67098;51.140;4.088;2023-08-30T07:02:05;17.60;95.90
32217;DHT22;67098;51.140;4.088;2023-08-30T07:04:31;17.70;95.80
32217;DHT22;67098;51.140;4.088;2023-08-30T07:06:57;17.70;95.70
32217;DHT22;67098;51.140;4.088;2023-08-30T07:09:23;17.70;95.90
32217;DHT22;67098;51.140;4.088;2023-08-30T07:11:54;17.60;95.80
32217;DHT22;67098;51.140;4.088;2023-08-30T07:14:20;17.60;95.90
32217;DHT22;67098;51.140;4.088;2023-08-30T07:16:46;17.60;95.80
32217;DHT22;67098;51.140;4.088;2023-08-30T07:19:15;17.60;96.10
32217;DHT22;67098;51.140;4.088;2023-08-30T07:21:44;17.60;96.00
32217;DHT22;67098;51.140;4.088;2023-08-30T07:24:10;17.60;96.10
32217;DHT22;67098;51.140;4.088;2023-08-30T07:26:36;17.70;96.10
32217;DHT22;67098;51.140;4.088;2023-08-30T07:29:03;17.70;96.00
32217;DHT22;67098;51.140;4.088;2023-08-30T07:31:31;17.80;96.10
32217;DHT22;67098;51.140;4.088;2023-08-30T07:33:57;17.90;96.30
32217;DHT22;67098;51.140;4.088;2023-08-30T07:36:25;18.00;96.20
32217;DHT22;67098;51.140;4.088;2023-08-30T07:38:51;18.00;95.90
32217;DHT22;67098;51.140;4.088;2023-08-30T07:41:17;18.00;96.00
32217;DHT22;67098;51.140;4.088;2023-08-30T07:43:43;18.10;96.10
32217;DHT22;67098;51.140;4.088;2023-08-30T07:46:08;18.20;96.10
32217;DHT22;67098;51.140;4.088;2023-08-30T07:48:34;18.30;95.70
32217;DHT22;67098;51.140;4.088;2023-08-30T07:51:00;18.40;95.40
32217;DHT22;67098;51.140;4.088;2023-08-30T07:53:26;18.40;95.70
32217;DHT22;67098;51.140;4.088;2023-08-30T07:55:51;18.50;95.90
32217;DHT22;67098;51.140;4.088;2023-08-30T07:58:17;18.60;95.80
32217;DHT22;67098;51.140;4.088;2023-08-30T08:00:43;18.80;95.80
32217;DHT22;67098;51.140;4.088;2023-08-30T08:03:09;19.00;95.40
32217;DHT22;67098;51.140;4.088;2023-08-30T08:05:36;19.20;95.20
32217;DHT22;67098;51.140;4.088;2023-08-30T08:08:02;19.40;95.00
32217;DHT22;67098;51.140;4.088;2023-08-30T08:10:34;19.50;94.60
32217;DHT22;67098;51.140;4.088;2023-08-30T08:13:00;19.60;94.60
32217;DHT22;67098;51.140;4.088;2023-08-30T08:15:26;19.60;94.40
32217;DHT22;67098;51.140;4.088;2023-08-30T08:17:52;19.70;94.30
32217;DHT22;67098;51.140;4.088;2023-08-30T08:20:18;19.70;94.30
32217;DHT22;67098;51.140;4.088;2023-08-30T08:22:43;19.70;94.30
32217;DHT22;67098;51.140;4.088;2023-08-30T08:25:10;19.90;94.20
32217;DHT22;67098;51.140;4.088;2023-08-30T08:27:36;19.90;93.90
32217;DHT22;67098;51.140;4.088;2023-08-30T08:30:04;19.80;93.90
32217;DHT22;67098;51.140;4.088;2023-08-30T08:32:30;19.80;94.20
32217;DHT22;67098;51.140;4.088;2023-08-30T08:34:57;19.60;94.40
32217;DHT22;67098;51.140;4.088;2023-08-30T08:37:23;19.70;94.30
32217;DHT22;67098;51.140;4.088;2023-08-30T08:39:49;19.70;94.20
32217;DHT22;67098;51.140;4.088;2023-08-30T08:42:19;19.80;94.40
32217;DHT22;67098;51.140;4.088;2023-08-30T08:44:51;19.80;94.30
32217;DHT22;67098;51.140;4.088;2023-08-30T08:47:19;19.90;94.20
32217;DHT22;67098;51.140;4.088;2023-08-30T08:49:46;20.30;94.00
32217;DHT22;67098;51.140;4.088;2023-08-30T08:52:13;20.70;93.60
32217;DHT22;67098;51.140;4.088;2023-08-30T08:54:40;21.00;93.00
32217;DHT22;67098;51.140;4.088;2023-08-30T08:57:07;21.00;92.70
32217;DHT22;67098;51.140;4.088;2023-08-30T08:59:33;21.10;92.50
32217;DHT22;67098;51.140;4.088;2023-08-30T09:02:00;21.30;92.10
32217;DHT22;67098;51.140;4.088;2023-08-30T09:04:32;21.60;92.00
32217;DHT22;67098;51.140;4.088;2023-08-30T09:07:02;21.90;91.50
32217;DHT22;67098;51.140;4.088;2023-08-30T09:09:28;22.00;91.00
32217;DHT22;67098;51.140;4.088;2023-08-30T09:11:53;22.00;90.80
32217;DHT22;67098;51.140;4.088;2023-08-30T09:14:19;22.10;90.50
32217;DHT22;67098;51.140;4.088;2023-08-30T09:16:56;22.00;90.40
32217;DHT22;67098;51.140;4.088;2023-08-30T09:19:21;22.30;90.20
32217;DHT22;67098;51.140;4.088;2023-08-30T09:21:54;23.00;90.00
32217;DHT22;67098;51.140;4.088;2023-08-30T09:24:20;23.70;87.80
32217;DHT22;67098;51.140;4.088;2023-08-30T09:26:51;24.10;85.20
32217;DHT22;67098;51.140;4.088;2023-08-30T09:29:19;24.20;83.90
32217;DHT22;67098;51.140;4.088;2023-08-30T09:31:45;24.20;84.00
32217;DHT22;67098;51.140;4.088;2023-08-30T09:34:12;23.60;81.60
32217;DHT22;67098;51.140;4.088;2023-08-30T09:36:40;23.80;81.50
32217;DHT22;67098;51.140;4.088;2023-08-30T09:39:10;24.30;80.00
32217;DHT22;67098;51.140;4.088;2023-08-30T09:41:40;24.90;78.40
32217;DHT22;67098;51.140;4.088;2023-08-30T09:44:10;25.40;76.70
32217;DHT22;67098;51.140;4.088;2023-08-30T09:46:42;26.00;75.70
32217;DHT22;67098;51.140;4.088;2023-08-30T09:49:10;26.00;73.30
32217;DHT22;67098;51.140;4.088;2023-08-30T09:51:39;26.30;70.60
32217;DHT22;67098;51.140;4.088;2023-08-30T09:54:17;26.30;69.90
32217;DHT22;67098;51.140;4.088;2023-08-30T09:56:43;26.50;69.20
32217;DHT22;67098;51.140;4.088;2023-08-30T09:59:14;26.60;68.40
32217;DHT22;67098;51.140;4.088;2023-08-30T10:02:00;27.00;68.00
32217;DHT22;67098;51.140;4.088;2023-08-30T10:04:31;27.00;66.70
32217;DHT22;67098;51.140;4.088;2023-08-30T10:06:57;26.60;66.90
32217;DHT22;67098;51.140;4.088;2023-08-30T10:09:24;26.10;67.50
32217;DHT22;67098;51.140;4.088;2023-08-30T10:11:50;25.30;67.70
32217;DHT22;67098;51.140;4.088;2023-08-30T10:14:17;24.60;68.30
32217;DHT22;67098;51.140;4.088;2023-08-30T10:16:48;24.10;69.20
32217;DHT22;67098;51.140;4.088;2023-08-30T10:19:24;23.20;70.50
32217;DHT22;67098;51.140;4.088;2023-08-30T10:22:10;22.90;72.90
32217;DHT22;67098;51.140;4.088;2023-08-30T10:24:59;24.00;72.00
32217;DHT22;67098;51.140;4.088;2023-08-30T10:27:30;25.00;69.40
32217;DHT22;67098;51.140;4.088;2023-08-30T10:30:20;25.70;68.10
32217;DHT22;67098;51.140;4.088;2023-08-30T10:32:46;25.60;67.60
32217;DHT22;67098;51.140;4.088;2023-08-30T10:35:17;24.80;67.00
32217;DHT22;67098;51.140;4.088;2023-08-30T10:37:54;24.50;67.30
32217;DHT22;67098;51.140;4.088;2023-08-30T10:40:20;24.30;67.40
32217;DHT22;67098;51.140;4.088;2023-08-30T10:43:03;24.50;66.70
32217;DHT22;67098;51.140;4.088;2023-08-30T10:45:29;24.60;67.10
32217;DHT22;67098;51.140;4.088;2023-08-30T10:47:57;25.20;65.40
32217;DHT22;67098;51.140;4.088;2023-08-30T10:50:39;26.10;64.20
32217;DHT22;67098;51.140;4.088;2023-08-30T10:53:12;26.30;61.90
32217;DHT22;67098;51.140;4.088;2023-08-30T10:55:40;26.80;62.40
32217;DHT22;67098;51.140;4.088;2023-08-30T10:58:15;27.10;61.10
32217;DHT22;67098;51.140;4.088;2023-08-30T11:00:41;27.00;60.50
32217;DHT22;67098;51.140;4.088;2023-08-30T11:03:10;27.00;59.80
32217;DHT22;67098;51.140;4.088;2023-08-30T11:05:40;27.30;58.90
32217;DHT22;67098;51.140;4.088;2023-08-30T11:08:10;27.40;58.00
32217;DHT22;67098;51.140;4.088;2023-08-30T11:10:37;27.20;58.30
32217;DHT22;67098;51.140;4.088;2023-08-30T11:13:05;27.00;58.80
32217;DHT22;67098;51.140;4.088;2023-08-30T11:15:31;27.60;57.50
32217;DHT22;67098;51.140;4.088;2023-08-30T11:18:27;28.40;56.90
32217;DHT22;67098;51.140;4.088;2023-08-30T11:21:03;29.20;55.80
32217;DHT22;67098;51.140;4.088;2023-08-30T11:23:29;29.60;54.60
32217;DHT22;67098;51.140;4.088;2023-08-30T11:25:57;29.50;53.80
32217;DHT22;67098;51.140;4.088;2023-08-30T11:28:26;29.90;53.50
32217;DHT22;67098;51.140;4.088;2023-08-30T11:30:57;29.40;54.10
32217;DHT22;67098;51.140;4.088;2023-08-30T11:33:29;28.20;55.50
32217;DHT22;67098;51.140;4.088;2023-08-30T11:35:58;27.60;56.60
32217;DHT22;67098;51.140;4.088;2023-08-30T11:38:28;27.40;56.70
32217;DHT22;67098;51.140;4.088;2023-08-30T11:40:56;27.90;56.20
32217;DHT22;67098;51.140;4.088;2023-08-30T11:43:29;28.70;55.70
32217;DHT22;67098;51.140;4.088;2023-08-30T11:45:57;29.70;54.80
32217;DHT22;67098;51.140;4.088;2023-08-30T11:48:23;30.50;54.60
32217;DHT22;67098;51.140;4.088;2023-08-30T11:50:49;31.00;52.90
32217;DHT22;67098;51.140;4.088;2023-08-30T11:53:16;31.00;51.80
32217;DHT22;67098;51.140;4.088;2023-08-30T11:55:42;30.40;52.00
32217;DHT22;67098;51.140;4.088;2023-08-30T11:58:10;29.30;53.00
32217;DHT22;67098;51.140;4.088;2023-08-30T12:00:36;28.90;54.30
32217;DHT22;67098;51.140;4.088;2023-08-30T12:03:13;29.20;54.50
32217;DHT22;67098;51.140;4.088;2023-08-30T12:06:09;28.40;55.50
32217;DHT22;67098;51.140;4.088;2023-08-30T12:11:35;27.70;57.40
32217;DHT22;67098;51.140;4.088;2023-08-30T12:14:33;28.40;56.80
32217;DHT22;67098;51.140;4.088;2023-08-30T12:17:03;29.30;56.00
32217;DHT22;67098;51.140;4.088;2023-08-30T12:20:16;29.60;54.60
32217;DHT22;67098;51.140;4.088;2023-08-30T12:22:57;29.50;53.50
32217;DHT22;67098;51.140;4.088;2023-08-30T12:25:23;28.50;55.00
32217;DHT22;67098;51.140;4.088;2023-08-30T12:27:49;27.50;56.30
32217;DHT22;67098;51.140;4.088;2023-08-30T12:30:16;26.90;57.70
32217;DHT22;67098;51.140;4.088;2023-08-30T12:32:43;26.50;58.50
32217;DHT22;67098;51.140;4.088;2023-08-30T12:35:09;25.80;59.80
32217;DHT22;67098;51.140;4.088;2023-08-30T12:37:36;25.70;61.30
32217;DHT22;67098;51.140;4.088;2023-08-30T12:40:02;26.50;60.80
32217;DHT22;67098;51.140;4.088;2023-08-30T12:42:29;26.20;59.20
32217;DHT22;67098;51.140;4.088;2023-08-30T12:44:54;25.10;59.90
32217;DHT22;67098;51.140;4.088;2023-08-30T12:47:20;24.70;61.40
32217;DHT22;67098;51.140;4.088;2023-08-30T12:49:46;24.80;62.30
32217;DHT22;67098;51.140;4.088;2023-08-30T12:52:12;24.80;62.60
32217;DHT22;67098;51.140;4.088;2023-08-30T12:54:38;24.70;62.90
32217;DHT22;67098;51.140;4.088;2023-08-30T12:57:04;24.40;62.90
32217;DHT22;67098;51.140;4.088;2023-08-30T12:59:29;24.30;63.60
32217;DHT22;67098;51.140;4.088;2023-08-30T13:01:55;24.40;63.80
32217;DHT22;67098;51.140;4.088;2023-08-30T13:04:21;24.30;62.50
32217;DHT22;67098;51.140;4.088;2023-08-30T13:06:47;24.30;62.50
32217;DHT22;67098;51.140;4.088;2023-08-30T13:09:13;24.70;62.60
32217;DHT22;67098;51.140;4.088;2023-08-30T13:11:39;25.30;62.10
32217;DHT22;67098;51.140;4.088;2023-08-30T13:14:04;24.80;62.10
32217;DHT22;67098;51.140;4.088;2023-08-30T13:16:30;25.10;62.80
32217;DHT22;67098;51.140;4.088;2023-08-30T13:19:27;25.40;61.90
32217;DHT22;67098;51.140;4.088;2023-08-30T13:21:53;25.30;61.90
32217;DHT22;67098;51.140;4.088;2023-08-30T13:24:20;25.30;62.20
32217;DHT22;67098;51.140;4.088;2023-08-30T13:26:49;25.60;62.00
32217;DHT22;67098;51.140;4.088;2023-08-30T13:29:15;25.70;61.60
32217;DHT22;67098;51.140;4.088;2023-08-30T13:31:42;25.30;60.60
32217;DHT22;67098;51.140;4.088;2023-08-30T13:34:08;25.30;60.70
32217;DHT22;67098;51.140;4.088;2023-08-30T13:36:34;26.10;59.80
32217;DHT22;67098;51.140;4.088;2023-08-30T13:39:02;26.80;58.10
32217;DHT22;67098;51.140;4.088;2023-08-30T13:41:33;26.40;56.40
32217;DHT22;67098;51.140;4.088;2023-08-30T13:44:01;26.00;56.60
32217;DHT22;67098;51.140;4.088;2023-08-30T13:46:30;26.00;57.30
32217;DHT22;67098;51.140;4.088;2023-08-30T13:48:55;27.00;56.60
32217;DHT22;67098;51.140;4.088;2023-08-30T13:51:26;27.50;56.00
32217;DHT22;67098;51.140;4.088;2023-08-30T13:53:52;27.80;55.60
32217;DHT22;67098;51.140;4.088;2023-08-30T13:56:19;27.70;55.40
32217;DHT22;67098;51.140;4.088;2023-08-30T13:58:45;27.70;56.00
32217;DHT22;67098;51.140;4.088;2023-08-30T14:01:14;28.00;55.30
32217;DHT22;67098;51.140;4.088;2023-08-30T14:03:40;27.80;55.00
32217;DHT22;67098;51.140;4.088;2023-08-30T14:06:06;27.30;56.20
32217;DHT22;67098;51.140;4.088;2023-08-30T14:08:32;27.30;56.60
32217;DHT22;67098;51.140;4.088;2023-08-30T14:10:58;27.80;55.30
32217;DHT22;67098;51.140;4.088;2023-08-30T14:13:24;28.10;54.50
32217;DHT22;67098;51.140;4.088;2023-08-30T14:15:50;28.30;54.40
32217;DHT22;67098;51.140;4.088;2023-08-30T14:18:16;28.00;54.60
32217;DHT22;67098;51.140;4.088;2023-08-30T14:20:44;27.80;54.80
32217;DHT22;67098;51.140;4.088;2023-08-30T14:23:09;27.20;55.20
32217;DHT22;67098;51.140;4.088;2023-08-30T14:25:36;26.60;55.90
32217;DHT22;67098;51.140;4.088;2023-08-30T14:28:03;26.20;57.00
32217;DHT22;67098;51.140;4.088;2023-08-30T14:30:31;26.70;57.30
32217;DHT22;67098;51.140;4.088;2023-08-30T14:32:57;27.50;56.80
32217;DHT22;67098;51.140;4.088;2023-08-30T14:35:23;27.80;56.40
32217;DHT22;67098;51.140;4.088;2023-08-30T14:37:53;27.50;56.80
32217;DHT22;67098;51.140;4.088;2023-08-30T14:40:19;26.80;57.60
32217;DHT22;67098;51.140;4.088;2023-08-30T14:42:45;26.20;58.30
32217;DHT22;67098;51.140;4.088;2023-08-30T14:45:10;25.60;59.70
32217;DHT22;67098;51.140;4.088;2023-08-30T14:47:37;24.90;61.00
32217;DHT22;67098;51.140;4.088;2023-08-30T14:50:03;24.30;62.20
32217;DHT22;67098;51.140;4.088;2023-08-30T14:52:30;24.20;63.00
32217;DHT22;67098;51.140;4.088;2023-08-30T14:54:55;24.20;63.40
32217;DHT22;67098;51.140;4.088;2023-08-30T14:57:22;24.20;63.60
32217;DHT22;67098;51.140;4.088;2023-08-30T14:59:48;24.30;63.20
32217;DHT22;67098;51.140;4.088;2023-08-30T15:02:14;24.90;61.90
32217;DHT22;67098;51.140;4.088;2023-08-30T15:04:40;25.60;60.90
32217;DHT22;67098;51.140;4.088;2023-08-30T15:07:06;25.90;59.60
32217;DHT22;67098;51.140;4.088;2023-08-30T15:09:32;25.60;58.70
32217;DHT22;67098;51.140;4.088;2023-08-30T15:11:58;25.30;59.50
32217;DHT22;67098;51.140;4.088;2023-08-30T15:14:25;25.40;59.70
32217;DHT22;67098;51.140;4.088;2023-08-30T15:16:51;25.40;60.00
32217;DHT22;67098;51.140;4.088;2023-08-30T15:19:16;25.50;60.10
32217;DHT22;67098;51.140;4.088;2023-08-30T15:21:45;26.00;59.90
32217;DHT22;67098;51.140;4.088;2023-08-30T15:24:11;26.40;59.30
32217;DHT22;67098;51.140;4.088;2023-08-30T15:26:38;26.10;59.00
32217;DHT22;67098;51.140;4.088;2023-08-30T15:29:04;25.80;58.90
32217;DHT22;67098;51.140;4.088;2023-08-30T15:31:30;25.70;59.40
32217;DHT22;67098;51.140;4.088;2023-08-30T15:34:00;26.00;59.60
32217;DHT22;67098;51.140;4.088;2023-08-30T15:36:26;26.20;58.80
32217;DHT22;67098;51.140;4.088;2023-08-30T15:38:52;26.20;58.20
32217;DHT22;67098;51.140;4.088;2023-08-30T15:41:18;25.90;58.50